sensor_id;sensor_type;location;lat;lon;timestamp;P1;durP1;ratioP1;P2;durP2;ratioP2
52674;SDS011;38569;52.722;6.440;2023-11-21T00:00:29;54.80;;;25.08;;
52674;SDS011;38569;52.722;6.440;2023-11-21T00:02:55;67.63;;;27.35;;
52674;SDS011;38569;52.722;6.440;2023-11-21T00:05:20;61.95;;;26.02;;
52674;SDS011;38569;52.722;6.440;2023-11-21T00:07:48;58.03;;;26.02;;
52674;SDS011;38569;52.722;6.440;2023-11-21T00:10:14;60.03;;;25.23;;
52674;SDS011;38569;52.722;6.440;2023-11-21T00:12:40;55.63;;;25.45;;
52674;SDS011;38569;52.722;6.440;2023-11-21T00:15:07;58.28;;;26.08;;
52674;SDS011;38569;52.722;6.440;2023-11-21T00:17:37;62.35;;;24.52;;
52674;SDS011;38569;52.722;6.440;2023-11-21T00:20:03;56.15;;;25.35;;
52674;SDS011;38569;52.722;6.440;2023-11-21T00:22:35;56.40;;;26.65;;
52674;SDS011;38569;52.722;6.440;2023-11-21T00:25:01;57.67;;;26.33;;
52674;SDS011;38569;52.722;6.440;2023-11-21T00:27:29;58.92;;;25.85;;
52674;SDS011;38569;52.722;6.440;2023-11-21T00:29:55;63.70;;;24.23;;
52674;SDS011;38569;52.722;6.440;2023-11-21T00:32:21;59.83;;;25.60;;
52674;SDS011;38569;52.722;6.440;2023-11-21T00:34:46;59.88;;;26.40;;
52674;SDS011;38569;52.722;6.440;2023-11-21T00:37:12;52.10;;;24.98;;
52674;SDS011;38569;52.722;6.440;2023-11-21T00:39:38;61.72;;;25.20;;
52674;SDS011;38569;52.722;6.440;2023-11-21T00:42:04;54.42;;;24.52;;
52674;SDS011;38569;52.722;6.440;2023-11-21T00:44:30;51.78;;;23.92;;
52674;SDS011;38569;52.722;6.440;2023-11-21T00:46:55;59.03;;;25.80;;
52674;SDS011;38569;52.722;6.440;2023-11-21T00:49:21;60.92;;;26.10;;
52674;SDS011;38569;52.722;6.440;2023-11-21T00:51:47;56.83;;;24.35;;
52674;SDS011;38569;52.722;6.440;2023-11-21T00:54:13;51.63;;;24.20;;
52674;SDS011;38569;52.722;6.440;2023-11-21T00:56:38;53.55;;;22.48;;
52674;SDS011;38569;52.722;6.440;2023-11-21T00:59:05;62.83;;;24.17;;
52674;SDS011;38569;52.722;6.440;2023-11-21T01:01:32;47.95;;;23.58;;
52674;SDS011;38569;52.722;6.440;2023-11-21T01:03:57;59.38;;;25.35;;
52674;SDS011;38569;52.722;6.440;2023-11-21T01:06:23;64.38;;;25.45;;
52674;SDS011;38569;52.722;6.440;2023-11-21T01:08:49;58.03;;;23.80;;
52674;SDS011;38569;52.722;6.440;2023-11-21T01:11:14;54.20;;;24.17;;
52674;SDS011;38569;52.722;6.440;2023-11-21T01:13:40;59.63;;;23.67;;
52674;SDS011;38569;52.722;6.440;2023-11-21T01:16:07;55.92;;;24.98;;
52674;SDS011;38569;52.722;6.440;2023-11-21T01:18:34;65.57;;;25.20;;
52674;SDS011;38569;52.722;6.440;2023-11-21T01:21:00;53.30;;;23.58;;
52674;SDS011;38569;52.722;6.440;2023-11-21T01:23:26;60.08;;;24.35;;
52674;SDS011;38569;52.722;6.440;2023-11-21T01:25:52;58.38;;;25.08;;
52674;SDS011;38569;52.722;6.440;2023-11-21T01:28:18;64.93;;;26.70;;
52674;SDS011;38569;52.722;6.440;2023-11-21T01:30:44;50.22;;;23.02;;
52674;SDS011;38569;52.722;6.440;2023-11-21T01:33:11;51.03;;;21.25;;
52674;SDS011;38569;52.722;6.440;2023-11-21T01:35:36;49.08;;;22.48;;
52674;SDS011;38569;52.722;6.440;2023-11-21T01:38:02;58.40;;;24.30;;
52674;SDS011;38569;52.722;6.440;2023-11-21T01:40:29;56.20;;;24.52;;
52674;SDS011;38569;52.722;6.440;2023-11-21T01:42:55;55.65;;;24.58;;
52674;SDS011;38569;52.722;6.440;2023-11-21T01:45:22;49.67;;;23.10;;
52674;SDS011;38569;52.722;6.440;2023-11-21T01:47:50;53.05;;;23.13;;
52674;SDS011;38569;52.722;6.440;2023-11-21T01:50:16;48.75;;;21.17;;
52674;SDS011;38569;52.722;6.440;2023-11-21T01:52:43;56.25;;;22.52;;
52674;SDS011;38569;52.722;6.440;2023-11-21T01:55:10;53.15;;;21.60;;
52674;SDS011;38569;52.722;6.440;2023-11-21T01:57:37;51.83;;;23.13;;
52674;SDS011;38569;52.722;6.440;2023-11-21T02:00:03;45.92;;;22.33;;
52674;SDS011;38569;52.722;6.440;2023-11-21T02:02:41;55.95;;;22.20;;
52674;SDS011;38569;52.722;6.440;2023-11-21T02:05:11;48.83;;;21.70;;
52674;SDS011;38569;52.722;6.440;2023-11-21T02:07:38;46.28;;;21.83;;
52674;SDS011;38569;52.722;6.440;2023-11-21T02:10:05;48.40;;;20.90;;
52674;SDS011;38569;52.722;6.440;2023-11-21T02:12:32;58.22;;;22.45;;
52674;SDS011;38569;52.722;6.440;2023-11-21T02:15:00;50.50;;;21.75;;
52674;SDS011;38569;52.722;6.440;2023-11-21T02:17:28;54.25;;;23.20;;
52674;SDS011;38569;52.722;6.440;2023-11-21T02:19:54;54.28;;;22.73;;
52674;SDS011;38569;52.722;6.440;2023-11-21T02:22:19;52.60;;;23.98;;
52674;SDS011;38569;52.722;6.440;2023-11-21T02:24:45;59.50;;;23.50;;
52674;SDS011;38569;52.722;6.440;2023-11-21T02:27:13;52.85;;;24.60;;
52674;SDS011;38569;52.722;6.440;2023-11-21T02:29:42;55.80;;;24.27;;
52674;SDS011;38569;52.722;6.440;2023-11-21T02:32:08;56.38;;;23.02;;
52674;SDS011;38569;52.722;6.440;2023-11-21T02:34:35;52.40;;;23.80;;
52674;SDS011;38569;52.722;6.440;2023-11-21T02:37:01;55.17;;;24.15;;
52674;SDS011;38569;52.722;6.440;2023-11-21T02:39:28;69.05;;;26.70;;
52674;SDS011;38569;52.722;6.440;2023-11-21T02:41:54;67.22;;;25.77;;
52674;SDS011;38569;52.722;6.440;2023-11-21T02:44:19;52.65;;;24.60;;
52674;SDS011;38569;52.722;6.440;2023-11-21T02:46:45;64.32;;;25.67;;
52674;SDS011;38569;52.722;6.440;2023-11-21T02:49:12;60.47;;;27.35;;
52674;SDS011;38569;52.722;6.440;2023-11-21T02:51:37;68.38;;;26.35;;
52674;SDS011;38569;52.722;6.440;2023-11-21T02:54:04;51.35;;;24.33;;
52674;SDS011;38569;52.722;6.440;2023-11-21T02:56:33;67.45;;;25.92;;
52674;SDS011;38569;52.722;6.440;2023-11-21T02:58:59;57.88;;;26.38;;
52674;SDS011;38569;52.722;6.440;2023-11-21T03:01:25;62.75;;;25.63;;
52674;SDS011;38569;52.722;6.440;2023-11-21T03:03:51;58.50;;;25.75;;
52674;SDS011;38569;52.722;6.440;2023-11-21T03:06:20;56.72;;;25.60;;
52674;SDS011;38569;52.722;6.440;2023-11-21T03:08:46;55.80;;;25.75;;
52674;SDS011;38569;52.722;6.440;2023-11-21T03:11:12;51.80;;;24.77;;
52674;SDS011;38569;52.722;6.440;2023-11-21T03:13:39;60.38;;;25.92;;
52674;SDS011;38569;52.722;6.440;2023-11-21T03:16:09;64.75;;;26.90;;
52674;SDS011;38569;52.722;6.440;2023-11-21T03:18:38;52.15;;;25.40;;
52674;SDS011;38569;52.722;6.440;2023-11-21T03:21:04;74.82;;;29.30;;
52674;SDS011;38569;52.722;6.440;2023-11-21T03:23:31;69.00;;;26.98;;
52674;SDS011;38569;52.722;6.440;2023-11-21T03:25:57;62.28;;;27.08;;
52674;SDS011;38569;52.722;6.440;2023-11-21T03:28:23;70.97;;;28.23;;
52674;SDS011;38569;52.722;6.440;2023-11-21T03:30:49;56.90;;;25.40;;
52674;SDS011;38569;52.722;6.440;2023-11-21T03:33:14;68.88;;;28.85;;
52674;SDS011;38569;52.722;6.440;2023-11-21T03:35:40;60.83;;;27.83;;
52674;SDS011;38569;52.722;6.440;2023-11-21T03:38:07;67.50;;;27.55;;
52674;SDS011;38569;52.722;6.440;2023-11-21T03:40:34;56.05;;;24.98;;
52674;SDS011;38569;52.722;6.440;2023-11-21T03:43:00;70.05;;;28.35;;
52674;SDS011;38569;52.722;6.440;2023-11-21T03:45:26;67.18;;;28.73;;
52674;SDS011;38569;52.722;6.440;2023-11-21T03:47:51;55.42;;;27.27;;
52674;SDS011;38569;52.722;6.440;2023-11-21T03:50:17;74.90;;;28.30;;
52674;SDS011;38569;52.722;6.440;2023-11-21T03:52:43;75.45;;;29.58;;
52674;SDS011;38569;52.722;6.440;2023-11-21T03:55:09;63.40;;;27.23;;
52674;SDS011;38569;52.722;6.440;2023-11-21T03:57:35;68.68;;;27.92;;
52674;SDS011;38569;52.722;6.440;2023-11-21T04:00:01;64.13;;;27.88;;
52674;SDS011;38569;52.722;6.440;2023-11-21T04:02:29;75.78;;;31.42;;
52674;SDS011;38569;52.722;6.440;2023-11-21T04:04:56;59.25;;;29.17;;
52674;SDS011;38569;52.722;6.440;2023-11-21T04:07:22;81.00;;;31.88;;
52674;SDS011;38569;52.722;6.440;2023-11-21T04:09:48;77.32;;;31.05;;
52674;SDS011;38569;52.722;6.440;2023-11-21T04:12:13;65.55;;;29.35;;
52674;SDS011;38569;52.722;6.440;2023-11-21T04:14:39;69.85;;;27.95;;
52674;SDS011;38569;52.722;6.440;2023-11-21T04:17:05;53.47;;;27.05;;
52674;SDS011;38569;52.722;6.440;2023-11-21T04:19:31;63.83;;;28.10;;
52674;SDS011;38569;52.722;6.440;2023-11-21T04:21:56;53.97;;;27.27;;
52674;SDS011;38569;52.722;6.440;2023-11-21T04:24:22;56.55;;;28.48;;
52674;SDS011;38569;52.722;6.440;2023-11-21T04:26:48;84.18;;;32.80;;
52674;SDS011;38569;52.722;6.440;2023-11-21T04:29:14;65.07;;;29.13;;
52674;SDS011;38569;52.722;6.440;2023-11-21T04:31:39;62.75;;;30.48;;
52674;SDS011;38569;52.722;6.440;2023-11-21T04:34:06;94.45;;;31.67;;
52674;SDS011;38569;52.722;6.440;2023-11-21T04:36:33;75.80;;;31.73;;
52674;SDS011;38569;52.722;6.440;2023-11-21T04:39:00;60.30;;;26.73;;
52674;SDS011;38569;52.722;6.440;2023-11-21T04:41:25;85.95;;;30.52;;
52674;SDS011;38569;52.722;6.440;2023-11-21T04:43:51;74.53;;;30.85;;
52674;SDS011;38569;52.722;6.440;2023-11-21T04:46:17;146.50;;;38.70;;
52674;SDS011;38569;52.722;6.440;2023-11-21T04:48:43;102.43;;;33.50;;
52674;SDS011;38569;52.722;6.440;2023-11-21T04:51:09;90.53;;;31.50;;
52674;SDS011;38569;52.722;6.440;2023-11-21T04:53:36;124.78;;;36.38;;
52674;SDS011;38569;52.722;6.440;2023-11-21T04:56:02;122.35;;;36.90;;
52674;SDS011;38569;52.722;6.440;2023-11-21T04:58:28;73.03;;;29.90;;
52674;SDS011;38569;52.722;6.440;2023-11-21T05:00:54;133.85;;;39.47;;
52674;SDS011;38569;52.722;6.440;2023-11-21T05:03:20;110.28;;;35.85;;
52674;SDS011;38569;52.722;6.440;2023-11-21T05:05:45;124.32;;;37.40;;
52674;SDS011;38569;52.722;6.440;2023-11-21T05:08:11;96.53;;;33.45;;
52674;SDS011;38569;52.722;6.440;2023-11-21T05:10:37;84.38;;;30.08;;
52674;SDS011;38569;52.722;6.440;2023-11-21T05:13:04;83.53;;;31.48;;
52674;SDS011;38569;52.722;6.440;2023-11-21T05:15:34;90.75;;;33.28;;
52674;SDS011;38569;52.722;6.440;2023-11-21T05:18:00;91.78;;;32.22;;
52674;SDS011;38569;52.722;6.440;2023-11-21T05:20:26;76.70;;;29.30;;
52674;SDS011;38569;52.722;6.440;2023-11-21T05:22:53;66.57;;;27.63;;
52674;SDS011;38569;52.722;6.440;2023-11-21T05:25:18;67.18;;;26.77;;
52674;SDS011;38569;52.722;6.440;2023-11-21T05:27:47;53.67;;;25.60;;
52674;SDS011;38569;52.722;6.440;2023-11-21T05:30:13;54.03;;;24.75;;
52674;SDS011;38569;52.722;6.440;2023-11-21T05:32:39;46.90;;;23.83;;
52674;SDS011;38569;52.722;6.440;2023-11-21T05:35:09;50.15;;;23.90;;
52674;SDS011;38569;52.722;6.440;2023-11-21T05:37:40;60.40;;;27.17;;
52674;SDS011;38569;52.722;6.440;2023-11-21T05:40:06;39.65;;;21.08;;
52674;SDS011;38569;52.722;6.440;2023-11-21T05:42:33;45.08;;;22.95;;
52674;SDS011;38569;52.722;6.440;2023-11-21T05:44:59;45.70;;;22.38;;
52674;SDS011;38569;52.722;6.440;2023-11-21T05:47:38;61.47;;;26.17;;
52674;SDS011;38569;52.722;6.440;2023-11-21T05:50:06;66.38;;;26.98;;
52674;SDS011;38569;52.722;6.440;2023-11-21T05:52:37;43.25;;;22.15;;
52674;SDS011;38569;52.722;6.440;2023-11-21T05:55:04;66.72;;;24.30;;
52674;SDS011;38569;52.722;6.440;2023-11-21T05:57:32;72.32;;;27.75;;
52674;SDS011;38569;52.722;6.440;2023-11-21T06:00:01;54.60;;;24.83;;
52674;SDS011;38569;52.722;6.440;2023-11-21T06:02:40;60.83;;;25.02;;
52674;SDS011;38569;52.722;6.440;2023-11-21T06:05:06;46.38;;;22.42;;
52674;SDS011;38569;52.722;6.440;2023-11-21T06:07:33;68.65;;;26.08;;
52674;SDS011;38569;52.722;6.440;2023-11-21T06:10:00;70.15;;;26.25;;
52674;SDS011;38569;52.722;6.440;2023-11-21T06:12:28;65.60;;;27.23;;
52674;SDS011;38569;52.722;6.440;2023-11-21T06:14:54;72.28;;;29.80;;
52674;SDS011;38569;52.722;6.440;2023-11-21T06:17:20;104.32;;;33.15;;
52674;SDS011;38569;52.722;6.440;2023-11-21T06:19:47;79.35;;;28.08;;
52674;SDS011;38569;52.722;6.440;2023-11-21T06:22:12;74.97;;;29.02;;
52674;SDS011;38569;52.722;6.440;2023-11-21T06:24:38;68.32;;;27.10;;
52674;SDS011;38569;52.722;6.440;2023-11-21T06:27:06;64.22;;;26.40;;
52674;SDS011;38569;52.722;6.440;2023-11-21T06:29:31;52.72;;;23.60;;
52674;SDS011;38569;52.722;6.440;2023-11-21T06:31:57;73.43;;;27.63;;
52674;SDS011;38569;52.722;6.440;2023-11-21T06:34:23;68.95;;;26.92;;
52674;SDS011;38569;52.722;6.440;2023-11-21T06:36:49;60.90;;;25.33;;
52674;SDS011;38569;52.722;6.440;2023-11-21T06:39:15;69.55;;;26.15;;
52674;SDS011;38569;52.722;6.440;2023-11-21T06:41:43;71.07;;;27.10;;
52674;SDS011;38569;52.722;6.440;2023-11-21T06:44:08;65.05;;;26.67;;
52674;SDS011;38569;52.722;6.440;2023-11-21T06:46:34;69.53;;;26.85;;
52674;SDS011;38569;52.722;6.440;2023-11-21T06:49:00;65.60;;;27.95;;
52674;SDS011;38569;52.722;6.440;2023-11-21T06:51:25;73.03;;;29.20;;
52674;SDS011;38569;52.722;6.440;2023-11-21T06:53:51;71.28;;;29.90;;
52674;SDS011;38569;52.722;6.440;2023-11-21T06:56:17;83.57;;;30.77;;
52674;SDS011;38569;52.722;6.440;2023-11-21T06:58:46;81.65;;;31.73;;
52674;SDS011;38569;52.722;6.440;2023-11-21T07:01:12;85.95;;;32.13;;
52674;SDS011;38569;52.722;6.440;2023-11-21T07:03:39;82.65;;;32.60;;
52674;SDS011;38569;52.722;6.440;2023-11-21T07:06:04;87.78;;;33.63;;
52674;SDS011;38569;52.722;6.440;2023-11-21T07:08:30;70.50;;;29.75;;
52674;SDS011;38569;52.722;6.440;2023-11-21T07:10:56;102.53;;;36.03;;
52674;SDS011;38569;52.722;6.440;2023-11-21T07:13:22;82.18;;;31.50;;
52674;SDS011;38569;52.722;6.440;2023-11-21T07:15:48;99.40;;;34.03;;
52674;SDS011;38569;52.722;6.440;2023-11-21T07:18:14;89.50;;;32.63;;
52674;SDS011;38569;52.722;6.440;2023-11-21T07:20:40;108.80;;;36.97;;
52674;SDS011;38569;52.722;6.440;2023-11-21T07:23:05;96.53;;;35.33;;
52674;SDS011;38569;52.722;6.440;2023-11-21T07:25:32;90.78;;;34.75;;
52674;SDS011;38569;52.722;6.440;2023-11-21T07:27:58;83.20;;;33.95;;
52674;SDS011;38569;52.722;6.440;2023-11-21T07:30:25;88.57;;;33.30;;
52674;SDS011;38569;52.722;6.440;2023-11-21T07:32:51;107.95;;;35.75;;
52674;SDS011;38569;52.722;6.440;2023-11-21T07:35:17;70.93;;;32.13;;
52674;SDS011;38569;52.722;6.440;2023-11-21T07:37:42;87.30;;;31.92;;
52674;SDS011;38569;52.722;6.440;2023-11-21T07:40:08;65.20;;;27.73;;
52674;SDS011;38569;52.722;6.440;2023-11-21T07:42:36;53.40;;;25.05;;
52674;SDS011;38569;52.722;6.440;2023-11-21T07:45:02;52.92;;;25.30;;
52674;SDS011;38569;52.722;6.440;2023-11-21T07:47:29;60.42;;;25.92;;
52674;SDS011;38569;52.722;6.440;2023-11-21T07:49:55;69.65;;;27.77;;
52674;SDS011;38569;52.722;6.440;2023-11-21T07:52:23;52.17;;;23.90;;
52674;SDS011;38569;52.722;6.440;2023-11-21T07:54:49;53.60;;;25.20;;
52674;SDS011;38569;52.722;6.440;2023-11-21T07:57:15;57.17;;;26.15;;
52674;SDS011;38569;52.722;6.440;2023-11-21T07:59:42;52.25;;;25.10;;
52674;SDS011;38569;52.722;6.440;2023-11-21T08:02:07;56.05;;;25.75;;
52674;SDS011;38569;52.722;6.440;2023-11-21T08:04:33;54.22;;;23.85;;
52674;SDS011;38569;52.722;6.440;2023-11-21T08:07:00;62.90;;;27.80;;
52674;SDS011;38569;52.722;6.440;2023-11-21T08:09:26;42.45;;;20.38;;
52674;SDS011;38569;52.722;6.440;2023-11-21T08:11:52;42.50;;;20.25;;
52674;SDS011;38569;52.722;6.440;2023-11-21T08:14:18;32.55;;;16.80;;
52674;SDS011;38569;52.722;6.440;2023-11-21T08:16:45;40.60;;;19.92;;
52674;SDS011;38569;52.722;6.440;2023-11-21T08:19:11;38.55;;;18.75;;
52674;SDS011;38569;52.722;6.440;2023-11-21T08:21:37;32.00;;;16.80;;
52674;SDS011;38569;52.722;6.440;2023-11-21T08:24:08;29.48;;;15.77;;
52674;SDS011;38569;52.722;6.440;2023-11-21T08:26:36;39.30;;;17.35;;
52674;SDS011;38569;52.722;6.440;2023-11-21T08:29:03;34.10;;;17.35;;
52674;SDS011;38569;52.722;6.440;2023-11-21T08:31:31;38.97;;;19.27;;
52674;SDS011;38569;52.722;6.440;2023-11-21T08:33:57;30.17;;;13.68;;
52674;SDS011;38569;52.722;6.440;2023-11-21T08:36:23;34.13;;;17.95;;
52674;SDS011;38569;52.722;6.440;2023-11-21T08:38:49;33.00;;;18.20;;
52674;SDS011;38569;52.722;6.440;2023-11-21T08:41:17;36.53;;;17.67;;
52674;SDS011;38569;52.722;6.440;2023-11-21T08:43:47;31.60;;;17.38;;
52674;SDS011;38569;52.722;6.440;2023-11-21T08:46:13;37.22;;;18.77;;
52674;SDS011;38569;52.722;6.440;2023-11-21T08:48:40;31.52;;;16.73;;
52674;SDS011;38569;52.722;6.440;2023-11-21T08:51:06;35.50;;;18.55;;
52674;SDS011;38569;52.722;6.440;2023-11-21T08:53:34;35.17;;;15.80;;
52674;SDS011;38569;52.722;6.440;2023-11-21T08:56:00;35.35;;;18.10;;
52674;SDS011;38569;52.722;6.440;2023-11-21T08:58:26;35.30;;;17.95;;
52674;SDS011;38569;52.722;6.440;2023-11-21T09:00:52;32.95;;;17.35;;
52674;SDS011;38569;52.722;6.440;2023-11-21T09:03:18;36.25;;;17.58;;
52674;SDS011;38569;52.722;6.440;2023-11-21T09:05:44;37.92;;;19.63;;
52674;SDS011;38569;52.722;6.440;2023-11-21T09:08:09;39.47;;;19.02;;
52674;SDS011;38569;52.722;6.440;2023-11-21T09:10:35;31.27;;;16.65;;
52674;SDS011;38569;52.722;6.440;2023-11-21T09:13:02;28.23;;;15.75;;
52674;SDS011;38569;52.722;6.440;2023-11-21T09:15:27;34.78;;;17.33;;
52674;SDS011;38569;52.722;6.440;2023-11-21T09:17:53;37.28;;;17.17;;
52674;SDS011;38569;52.722;6.440;2023-11-21T09:20:19;32.20;;;14.25;;
52674;SDS011;38569;52.722;6.440;2023-11-21T09:22:48;32.13;;;16.73;;
52674;SDS011;38569;52.722;6.440;2023-11-21T09:25:16;32.10;;;16.40;;
52674;SDS011;38569;52.722;6.440;2023-11-21T09:27:42;28.00;;;13.48;;
52674;SDS011;38569;52.722;6.440;2023-11-21T09:30:08;29.15;;;14.73;;
52674;SDS011;38569;52.722;6.440;2023-11-21T09:32:35;25.40;;;13.13;;
52674;SDS011;38569;52.722;6.440;2023-11-21T09:35:02;21.13;;;13.73;;
52674;SDS011;38569;52.722;6.440;2023-11-21T09:37:33;29.50;;;15.32;;
52674;SDS011;38569;52.722;6.440;2023-11-21T09:39:59;28.20;;;14.75;;
52674;SDS011;38569;52.722;6.440;2023-11-21T09:43:08;26.92;;;13.85;;
52674;SDS011;38569;52.722;6.440;2023-11-21T09:45:18;36.60;;;16.17;;
52674;SDS011;38569;52.722;6.440;2023-11-21T09:47:51;42.40;;;17.05;;
52674;SDS011;38569;52.722;6.440;2023-11-21T09:50:18;33.53;;;14.27;;
52674;SDS011;38569;52.722;6.440;2023-11-21T09:55:50;39.70;;;17.63;;
52674;SDS011;38569;52.722;6.440;2023-11-21T09:58:17;44.92;;;17.42;;
52674;SDS011;38569;52.722;6.440;2023-11-21T10:00:45;48.70;;;17.70;;
52674;SDS011;38569;52.722;6.440;2023-11-21T10:03:12;54.20;;;18.80;;
52674;SDS011;38569;52.722;6.440;2023-11-21T10:05:39;43.15;;;17.45;;
52674;SDS011;38569;52.722;6.440;2023-11-21T10:08:07;41.17;;;18.83;;
52674;SDS011;38569;52.722;6.440;2023-11-21T10:10:35;57.80;;;20.90;;
52674;SDS011;38569;52.722;6.440;2023-11-21T10:13:11;52.17;;;19.55;;
52674;SDS011;38569;52.722;6.440;2023-11-21T10:15:42;43.80;;;20.92;;
52674;SDS011;38569;52.722;6.440;2023-11-21T10:18:13;52.22;;;21.92;;
52674;SDS011;38569;52.722;6.440;2023-11-21T10:20:40;50.92;;;23.50;;
52674;SDS011;38569;52.722;6.440;2023-11-21T10:23:06;57.00;;;25.25;;
52674;SDS011;38569;52.722;6.440;2023-11-21T10:25:36;56.53;;;25.77;;
52674;SDS011;38569;52.722;6.440;2023-11-21T10:28:03;52.60;;;25.58;;
52674;SDS011;38569;52.722;6.440;2023-11-21T10:30:36;56.97;;;26.33;;
52674;SDS011;38569;52.722;6.440;2023-11-21T10:33:06;50.13;;;24.67;;
52674;SDS011;38569;52.722;6.440;2023-11-21T10:38:15;36.88;;;16.23;;
52674;SDS011;38569;52.722;6.440;2023-11-21T10:40:41;37.10;;;19.75;;
52674;SDS011;38569;52.722;6.440;2023-11-21T10:43:08;32.95;;;18.35;;
52674;SDS011;38569;52.722;6.440;2023-11-21T10:45:34;38.13;;;22.27;;
52674;SDS011;38569;52.722;6.440;2023-11-21T10:48:04;37.97;;;21.63;;
52674;SDS011;38569;52.722;6.440;2023-11-21T10:50:46;34.67;;;17.75;;
52674;SDS011;38569;52.722;6.440;2023-11-21T10:53:12;38.35;;;21.58;;
52674;SDS011;38569;52.722;6.440;2023-11-21T10:55:38;33.13;;;19.63;;
52674;SDS011;38569;52.722;6.440;2023-11-21T10:58:04;39.95;;;22.65;;
52674;SDS011;38569;52.722;6.440;2023-11-21T11:00:32;33.33;;;21.58;;
52674;SDS011;38569;52.722;6.440;2023-11-21T11:02:58;26.83;;;15.13;;
52674;SDS011;38569;52.722;6.440;2023-11-21T11:05:27;34.45;;;20.05;;
52674;SDS011;38569;52.722;6.440;2023-11-21T11:08:07;45.50;;;23.52;;
52674;SDS011;38569;52.722;6.440;2023-11-21T11:10:34;42.65;;;23.73;;
52674;SDS011;38569;52.722;6.440;2023-11-21T11:13:01;38.03;;;21.05;;
52674;SDS011;38569;52.722;6.440;2023-11-21T11:15:27;31.05;;;18.20;;
52674;SDS011;38569;52.722;6.440;2023-11-21T11:17:54;43.20;;;25.17;;
52674;SDS011;38569;52.722;6.440;2023-11-21T11:20:25;30.80;;;18.48;;
52674;SDS011;38569;52.722;6.440;2023-11-21T11:25:35;33.00;;;17.30;;
52674;SDS011;38569;52.722;6.440;2023-11-21T11:28:21;39.40;;;21.20;;
52674;SDS011;38569;52.722;6.440;2023-11-21T11:31:17;31.42;;;19.10;;
52674;SDS011;38569;52.722;6.440;2023-11-21T11:33:59;31.88;;;18.38;;
52674;SDS011;38569;52.722;6.440;2023-11-21T11:36:47;33.13;;;21.40;;
52674;SDS011;38569;52.722;6.440;2023-11-21T11:39:27;34.92;;;20.95;;
52674;SDS011;38569;52.722;6.440;2023-11-21T11:41:56;38.85;;;22.50;;
52674;SDS011;38569;52.722;6.440;2023-11-21T11:44:46;29.15;;;19.20;;
52674;SDS011;38569;52.722;6.440;2023-11-21T11:47:16;25.40;;;17.25;;
52674;SDS011;38569;52.722;6.440;2023-11-21T11:55:08;23.27;;;15.60;;
52674;SDS011;38569;52.722;6.440;2023-11-21T11:57:39;21.38;;;13.82;;
52674;SDS011;38569;52.722;6.440;2023-11-21T12:00:13;22.88;;;16.75;;
52674;SDS011;38569;52.722;6.440;2023-11-21T12:02:51;22.23;;;15.38;;
52674;SDS011;38569;52.722;6.440;2023-11-21T12:05:26;20.98;;;14.52;;
52674;SDS011;38569;52.722;6.440;2023-11-21T12:07:59;20.33;;;14.70;;
52674;SDS011;38569;52.722;6.440;2023-11-21T12:10:27;19.00;;;13.05;;
52674;SDS011;38569;52.722;6.440;2023-11-21T12:15:21;13.82;;;10.90;;
52674;SDS011;38569;52.722;6.440;2023-11-21T12:17:48;15.30;;;11.05;;
52674;SDS011;38569;52.722;6.440;2023-11-21T12:20:19;14.02;;;10.20;;
52674;SDS011;38569;52.722;6.440;2023-11-21T12:22:55;14.32;;;7.72;;
52674;SDS011;38569;52.722;6.440;2023-11-21T12:25:24;14.63;;;9.35;;
52674;SDS011;38569;52.722;6.440;2023-11-21T12:27:54;13.15;;;9.80;;
52674;SDS011;38569;52.722;6.440;2023-11-21T12:30:21;13.40;;;10.25;;
52674;SDS011;38569;52.722;6.440;2023-11-21T12:32:51;20.00;;;12.13;;
52674;SDS011;38569;52.722;6.440;2023-11-21T12:35:22;14.15;;;9.48;;
52674;SDS011;38569;52.722;6.440;2023-11-21T12:37:52;14.90;;;9.88;;
52674;SDS011;38569;52.722;6.440;2023-11-21T12:40:20;15.75;;;11.15;;
52674;SDS011;38569;52.722;6.440;2023-11-21T12:42:48;9.45;;;7.20;;
52674;SDS011;38569;52.722;6.440;2023-11-21T12:47:54;12.65;;;10.27;;
52674;SDS011;38569;52.722;6.440;2023-11-21T12:50:33;18.20;;;10.45;;
52674;SDS011;38569;52.722;6.440;2023-11-21T12:53:10;16.92;;;11.50;;
52674;SDS011;38569;52.722;6.440;2023-11-21T12:55:43;13.98;;;10.10;;
52674;SDS011;38569;52.722;6.440;2023-11-21T12:58:15;13.10;;;10.40;;
52674;SDS011;38569;52.722;6.440;2023-11-21T13:00:45;15.95;;;10.70;;
52674;SDS011;38569;52.722;6.440;2023-11-21T13:03:12;14.35;;;10.25;;
52674;SDS011;38569;52.722;6.440;2023-11-21T13:05:44;13.05;;;10.77;;
52674;SDS011;38569;52.722;6.440;2023-11-21T13:08:15;15.18;;;9.80;;
52674;SDS011;38569;52.722;6.440;2023-11-21T13:10:45;14.60;;;10.55;;
52674;SDS011;38569;52.722;6.440;2023-11-21T13:13:13;10.70;;;8.20;;
52674;SDS011;38569;52.722;6.440;2023-11-21T13:15:49;13.82;;;10.13;;
52674;SDS011;38569;52.722;6.440;2023-11-21T13:18:25;13.00;;;10.65;;
52674;SDS011;38569;52.722;6.440;2023-11-21T13:20:57;12.13;;;7.63;;
52674;SDS011;38569;52.722;6.440;2023-11-21T13:23:24;9.60;;;7.82;;
52674;SDS011;38569;52.722;6.440;2023-11-21T13:25:51;13.48;;;8.93;;
52674;SDS011;38569;52.722;6.440;2023-11-21T13:28:18;11.68;;;9.15;;
52674;SDS011;38569;52.722;6.440;2023-11-21T13:30:46;12.20;;;9.68;;
52674;SDS011;38569;52.722;6.440;2023-11-21T13:33:13;11.20;;;8.85;;
52674;SDS011;38569;52.722;6.440;2023-11-21T13:35:46;11.38;;;9.20;;
52674;SDS011;38569;52.722;6.440;2023-11-21T13:38:17;9.85;;;7.60;;
52674;SDS011;38569;52.722;6.440;2023-11-21T13:40:51;10.18;;;7.63;;
52674;SDS011;38569;52.722;6.440;2023-11-21T13:43:20;9.07;;;7.00;;
52674;SDS011;38569;52.722;6.440;2023-11-21T13:45:48;10.02;;;7.55;;
52674;SDS011;38569;52.722;6.440;2023-11-21T13:48:23;9.35;;;7.50;;
52674;SDS011;38569;52.722;6.440;2023-11-21T13:51:06;8.50;;;7.20;;
52674;SDS011;38569;52.722;6.440;2023-11-21T13:53:45;9.63;;;7.78;;
52674;SDS011;38569;52.722;6.440;2023-11-21T13:56:15;9.30;;;7.47;;
52674;SDS011;38569;52.722;6.440;2023-11-21T13:58:46;9.07;;;6.22;;
52674;SDS011;38569;52.722;6.440;2023-11-21T14:01:16;10.18;;;6.97;;
52674;SDS011;38569;52.722;6.440;2023-11-21T14:03:55;10.45;;;8.18;;
52674;SDS011;38569;52.722;6.440;2023-11-21T14:06:37;9.48;;;6.05;;
52674;SDS011;38569;52.722;6.440;2023-11-21T14:09:13;11.40;;;7.95;;
52674;SDS011;38569;52.722;6.440;2023-11-21T14:11:50;10.57;;;7.53;;
52674;SDS011;38569;52.722;6.440;2023-11-21T14:14:18;11.52;;;8.05;;
52674;SDS011;38569;52.722;6.440;2023-11-21T14:16:45;12.60;;;7.78;;
52674;SDS011;38569;52.722;6.440;2023-11-21T14:19:11;15.70;;;6.57;;
52674;SDS011;38569;52.722;6.440;2023-11-21T14:21:46;14.85;;;9.95;;
52674;SDS011;38569;52.722;6.440;2023-11-21T14:24:14;12.73;;;9.30;;
52674;SDS011;38569;52.722;6.440;2023-11-21T14:26:43;14.05;;;10.15;;
52674;SDS011;38569;52.722;6.440;2023-11-21T14:29:11;13.23;;;9.20;;
52674;SDS011;38569;52.722;6.440;2023-11-21T14:31:39;13.45;;;8.50;;
52674;SDS011;38569;52.722;6.440;2023-11-21T14:34:06;14.18;;;9.75;;
52674;SDS011;38569;52.722;6.440;2023-11-21T14:36:36;13.45;;;10.20;;
52674;SDS011;38569;52.722;6.440;2023-11-21T14:39:02;12.68;;;9.73;;
52674;SDS011;38569;52.722;6.440;2023-11-21T14:41:32;13.38;;;8.50;;
52674;SDS011;38569;52.722;6.440;2023-11-21T14:44:00;11.45;;;8.82;;
52674;SDS011;38569;52.722;6.440;2023-11-21T14:46:28;12.90;;;8.55;;